Teuge International Airport

EHTE · Gelderland, Holandia

Historia METAR EHTE · Teuge International Airport

Poniżej widzisz METAR-y z ostatnich kilku dni. Wybierz rok, aby przeglądać starsze METAR-y, począwszy od roku 2007.

28 lutego 2024

Czas Kod Pogoda Temp. Widoczność Sufit Wiatr METAR/SPECI
20:25
M
7 °C 10 km+ 1.600 ft 180° 180° 7 kt METAR EHDL 281925Z AUTO 18007KT 110V240 9999 OVC016 07/05 Q1018 WHT
19:55
M
7 °C 10 km+ 1.700 ft 170° 170° 6 kt METAR EHDL 281855Z AUTO 17006KT 120V220 9999 OVC017 07/05 Q1018 WHT
19:25
V
7 °C 10 km+ 10.000 ft 170° 170° 6 kt METAR EHDL 281825Z AUTO 17006KT 120V220 9999 SCT016 OVC100 07/05 Q1019 WHT
18:55
V
7 °C 10 km+ 11.000 ft 170° 170° 7 kt METAR EHDL 281755Z AUTO 17007KT 120V220 9999 FEW016 OVC110 07/05 Q1019 BLU
18:25
M
8 °C 10 km+ 1.300 ft 180° 180° 7 kt METAR EHDL 281725Z AUTO 18007KT 110V220 9999 BKN013 OVC015 08/05 Q1019 GRN
17:55
M
8 °C 10 km+ 1.300 ft 180° 180° 8 kt METAR EHDL 281655Z AUTO 18008KT 110V240 9999 BKN013 OVC016 08/05 Q1019 GRN
17:25
M
8 °C 10 km+ 1.200 ft 180° 180° 7 kt METAR EHDL 281625Z AUTO 18007KT 140V230 9999 OVC012 08/05 Q1019 GRN
16:55
M
8 °C 10 km+ 1.600 ft 170° 170° 8 kt METAR EHDL 281555Z AUTO 17008KT 110V240 9999 FEW012 OVC016 08/05 Q1019 WHT
16:25
M
8 °C 10 km+ 1.100 ft 170° 170° 7 kt METAR EHDL 281525Z AUTO 17007KT 120V240 9999 BKN011 OVC014 08/05 Q1020 GRN
16:01
M
8 °C 10 km+ 1.400 ft 180° 180° 7 kt METAR EHDL 281501Z AUTO 18007KT 110V240 9999 SCT012 BKN014 BKN031 08/06 Q1020 GRN
15:55
M
8 °C 10 km+ 2.800 ft 160° 160° 8 kt METAR EHDL 281455Z AUTO 16008KT 130V250 9999 FEW012 BKN028 OVC031 08/06 Q1020 BLU
15:25
M
8 °C 10 km+ 1.100 ft 190° 190° 7 kt METAR EHDL 281425Z AUTO 19007KT 100V250 9999 OVC011 08/05 Q1020 GRN
14:55
M
8 °C 10 km+ 1.100 ft 200° 200° 6 kt METAR EHDL 281355Z AUTO 20006KT 120V260 9999 BKN011 OVC013 08/05 Q1020 GRN
14:25
M
8 °C 10 km+ 1.000 ft 190° 190° 7 kt METAR EHDL 281325Z AUTO 19007KT 100V250 9999 OVC010 08/05 Q1020 GRN
13:55
I
7 °C 8 km 700 ft 170° 170° 7 kt METAR EHDL 281255Z AUTO 17007KT 110V230 8000 BR OVC007 07/05 Q1021 GRN
13:25
I
7 °C 7 km 700 ft 160° 160° 6 kt METAR EHDL 281225Z AUTO 16006KT 110V240 7000 BR BKN007 OVC008 07/05 Q1021 GRN
12:55
M
6 °C 6 km 1.700 ft 180° 180° 7 kt METAR EHDL 281155Z AUTO 18007KT 110V240 6000 BR FEW011 OVC017 06/05 Q1021 WHT
12:25
M
6 °C 5 km 1.000 ft 170° 170° 6 kt METAR EHDL 281125Z AUTO 17006KT 110V220 5000 BR FEW006 OVC010 06/04 Q1021 GRN
11:55
L
5 °C 4,2 km 400 ft 170° 170° 5 kt METAR EHDL 281055Z AUTO 17005KT 110V220 4200 BR BKN004 OVC005 05/04 Q1021 YLO
11:25
L
4 °C 2,1 km 300 ft 180° 180° 5 kt METAR EHDL 281025Z AUTO 18005KT 130V240 2100 BR OVC003 04/04 Q1021 YLO
10:55
L
3 °C 2,1 km 300 ft 180° 180° 6 kt METAR EHDL 280955Z AUTO 18006KT 140V260 2100 -DZ BKN003 OVC004 03/03 Q1021 REDZ YLO
10:25
L
3 °C 3,1 km 400 ft 180° 180° 6 kt METAR EHDL 280925Z AUTO 18006KT 110V240 3100 BR SCT003 BKN004 OVC011 03/02 Q1021 YLO
09:55
I
3 °C 4,2 km 700 ft 190° 190° 5 kt METAR EHDL 280855Z AUTO 19005KT 130V230 4200 BR SCT004 BKN007 OVC009 03/02 Q1021 YLO
09:25
I
2 °C 4,3 km 700 ft 180° 180° 6 kt METAR EHDL 280825Z AUTO 18006KT 130V240 4300 BR FEW004 OVC007 02/02 Q1021 GRN
08:55
I
2 °C 4,2 km 4.300 ft 190° 190° 6 kt METAR EHDL 280755Z AUTO 19006KT 120V220 4200 BR SCT006 SCT021 BKN043 02/02 Q1021 YLO
08:25
I
2 °C 3,1 km 3.500 ft 170° 170° 6 kt METAR EHDL 280725Z AUTO 17006KT 120V230 3100 BR FEW002 SCT027 BKN035 02/01 Q1021 YLO
07:55
I
1 °C 3,5 km 2.600 ft 160° 160° 4 kt METAR EHDL 280655Z AUTO 16004KT 100V190 3500 BR BKN026 BKN029 OVC033 01/01 Q1020 YLO
07:25
I
1 °C 2,8 km 2.900 ft 150° 150° 3 kt METAR EHDL 280625Z AUTO 15003KT 080V190 2800 BR SCT019 BKN029 OVC037 01/01 Q1020 YLO
06:55
L
1 °C 1,4 km - 160° 160° 3 kt METAR EHDL 280555Z AUTO 16003KT 110V220 1400 BR OVC000 01/01 Q1020 RED
06:25
I
0 °C 2,1 km 3.600 ft 170° 170° 3 kt METAR EHDL 280525Z AUTO 17003KT 110V200 2100 BR BKN000 OVC036 00/00 Q1020 RED
05:55
I
0 °C 1,7 km - 130° 130° 3 kt METAR EHDL 280455Z AUTO 13003KT 110V170 1700 BR OVC000 00/00 Q1020 RED
05:25
L
0 °C 400 m - Var Var 2 kt METAR EHDL 280425Z AUTO VRB02KT 0400 FG OVC000 00/00 Q1019 RED
04:55
L
0 °C 300 m - 150° 150° 3 kt METAR EHDL 280355Z AUTO 15003KT 0300 FG OVC000 00/00 Q1019 RED
04:25
L
1 °C 400 m - Var Var 2 kt METAR EHDL 280325Z AUTO VRB02KT 0400 FG VV000 01/01 Q1019 RED
03:55
L
1 °C 350 m - Var Var 2 kt METAR EHDL 280255Z AUTO VRB02KT 0350 FG VV000 01/01 Q1019 RED
03:25
L
1 °C 300 m - 220° 220° 4 kt METAR EHDL 280225Z AUTO 22004KT 170V260 0300 FG VV000 01/01 Q1019 RED
02:55
L
2 °C 450 m - 210° 210° 4 kt METAR EHDL 280155Z AUTO 21004KT 140V240 0450 FG VV000 02/02 Q1019 RED
02:25
L
2 °C 1,3 km - 210° 210° 3 kt METAR EHDL 280125Z AUTO 21003KT 170V250 1300 BR OVC000 02/02 Q1019 RED
01:55
L
2 °C 800 m - 190° 190° 3 kt METAR EHDL 280055Z AUTO 19003KT 140V210 0800 FG VV000 02/02 Q1019 AMB
01:25
L
2 °C 600 m - Var Var 2 kt METAR EHDL 280025Z AUTO VRB02KT 0600 FG VV000 02/02 Q1020 RED RMK CB INFO NOT AVBL
00:55
L
2 °C 450 m - 160° 160° 3 kt METAR EHDL 272355Z AUTO 16003KT 120V210 0450 FG VV000 02/02 Q1019 RED
00:25
L
2 °C 500 m - 180° 180° 4 kt METAR EHDL 272325Z AUTO 18004KT 130V220 0500 FG VV000 02/02 Q1020 RED

27 lutego 2024

Czas Kod Pogoda Temp. Widoczność Sufit Wiatr METAR/SPECI
23:55
L
2 °C 450 m - 180° 180° 3 kt METAR EHDL 272255Z AUTO 18003KT 140V260 0450 FG VV000 02/02 Q1020 RED
23:25
L
2 °C 350 m - 160° 160° 4 kt METAR EHDL 272225Z AUTO 16004KT 110V230 0350 FG VV000 02/01 Q1020 RED
22:55
L
1 °C 300 m - 170° 170° 3 kt METAR EHDL 272155Z AUTO 17003KT 140V250 0300 FG VV000 01/01 Q1020 RED
22:25
L
2 °C 450 m - 130° 130° 4 kt METAR EHDL 272125Z AUTO 13004KT 140V230 0450 FG VV000 02/02 Q1020 RED
21:55
I
2 °C 2 km - 150° 150° 6 kt METAR EHDL 272055Z AUTO 15006KT 070V200 2000 BR OVC000 02/02 Q1019 RED
21:25
L
2 °C 1,2 km - 140° 140° 7 kt METAR EHDL 272025Z AUTO 14007KT 100V200 1200 BR OVC000 02/01 Q1019 RED
20:55
L
2 °C 1,3 km - 130° 130° 5 kt METAR EHDL 271955Z AUTO 13005KT 080V220 1300 BR OVC000 02/02 Q1019 RED
20:25
L
2 °C 2,7 km 100 ft 130° 130° 4 kt METAR EHDL 271925Z AUTO 13004KT 100V200 2700 BR OVC001 02/01 Q1019 RED
19:55
L
1 °C 4,2 km 100 ft Var Var 2 kt METAR EHDL 271855Z AUTO VRB02KT 4200 BR OVC001 01/M00 Q1019 RED
19:25
M
1 °C 6 km 30.000 ft 110° 110° 4 kt METAR EHDL 271825Z AUTO 11004KT 090V170 6000 BR OVC300 01/01 Q1019 WHT
18:55
V
2 °C 8 km - 130° 130° 3 kt METAR EHDL 271755Z AUTO 13003KT 8000 BR NCD 02/00 Q1018 BLU
18:25
V
2 °C 10 km+ 27.000 ft 120° 120° 3 kt METAR EHDL 271725Z AUTO 12003KT 080V140 9999 BKN270 02/01 Q1018 BLU
17:55
V
4 °C 10 km+ 28.000 ft 130° 130° 6 kt METAR EHDL 271655Z AUTO 13006KT 090V180 9999 SCT017 BKN280 BKN370 04/02 Q1018 WHT
17:25
V
6 °C 10 km+ - 130° 130° 4 kt METAR EHDL 271625Z AUTO 13004KT 080V180 9999 SCT280 06/03 Q1018 BLU
16:55
V
7 °C 10 km+ 27.000 ft 110° 110° 4 kt METAR EHDL 271555Z AUTO 11004KT 030V150 9999 OVC270 07/03 Q1018 BLU
16:25
V
8 °C 10 km+ - 090° 090° 3 kt METAR EHDL 271525Z AUTO 09003KT 010V160 9999 SCT290 08/03 Q1018 BLU
15:55
V
8 °C 10 km+ - Var Var 2 kt METAR EHDL 271455Z AUTO VRB02KT 9999 NCD 08/03 Q1018 BLU
15:25
V
8 °C 10 km+ - 090° 090° 3 kt METAR EHDL 271425Z AUTO 09003KT 9999 NCD 08/03 Q1017 BLU
14:55
V
7 °C 10 km+ - 060° 060° 3 kt METAR EHDL 271355Z AUTO 06003KT 9999 NCD 07/03 Q1018 BLU
14:25
V
7 °C 10 km+ - 110° 110° 4 kt METAR EHDL 271325Z AUTO 11004KT 9999 FEW320 07/03 Q1018 BLU
13:55
V
6 °C 10 km+ - 070° 070° 4 kt METAR EHDL 271255Z AUTO 07004KT 9999 NCD 06/03 Q1018 BLU
13:25
V
5 °C 10 km+ - 080° 080° 4 kt METAR EHDL 271225Z AUTO 08004KT 9999 NCD 05/03 Q1018 BLU
12:55
V
5 °C 10 km+ - 080° 080° 5 kt METAR EHDL 271155Z AUTO 08005KT 9999 NCD 05/02 Q1019 BLU
12:25
V
6 °C 10 km+ - 080° 080° 6 kt METAR EHDL 271125Z AUTO 08006KT 350V150 9999 SCT010 06/03 Q1019 GRN
11:55
I
5 °C 10 km+ 800 ft 050° 050° 5 kt METAR EHDL 271055Z AUTO 05005KT 290V050 9999 OVC008 05/02 Q1019 GRN
11:25
I
4 °C 10 km+ 700 ft 040° 040° 7 kt METAR EHDL 271025Z AUTO 04007KT 330V140 9999 BKN007 04/02 Q1019 GRN
10:55
I
3 °C 10 km+ 600 ft 030° 030° 5 kt METAR EHDL 270955Z AUTO 03005KT 300V090 9999 OVC006 03/02 Q1019 YLO
10:25
I
3 °C 10 km+ 500 ft 010° 010° 10 kt METAR EHDL 270925Z AUTO 01010KT 310V060 9999 OVC005 03/01 Q1019 YLO
09:55
I
3 °C 9 km 500 ft 010° 010° 10 kt METAR EHDL 270855Z AUTO 01010KT 310V070 9000 BR SCT004 OVC005 03/01 Q1019 YLO
09:25
L
2 °C 6 km 400 ft 020° 020° 7 kt METAR EHDL 270825Z AUTO 02007KT 320V070 6000 BR OVC004 02/02 Q1018 YLO
08:55
L
2 °C 7 km 400 ft 030° 030° 10 kt METAR EHDL 270755Z AUTO 03010KT 330V100 7000 BR BKN004 OVC005 02/02 Q1018 YLO
08:25
L
2 °C 7 km 400 ft 030° 030° 12 kt METAR EHDL 270725Z AUTO 03012KT 330V100 7000 BR OVC004 02/02 Q1018 YLO
07:55
I
2 °C 8 km 500 ft 030° 030° 10 kt METAR EHDL 270655Z AUTO 03010KT 300V110 8000 BR BKN005 BKN007 02/01 Q1018 YLO
07:25
M
2 °C 7 km - 020° 020° 8 kt METAR EHDL 270625Z AUTO 02008KT 320V060 7000 BR NCD 02/01 Q1017 WHT
06:55
I
2 °C 7 km 600 ft 350° 350° 8 kt METAR EHDL 270555Z AUTO 35008KT 310V060 7000 BR SCT005 BKN006 02/01 Q1017 YLO
06:25
M
2 °C 7 km - 010° 010° 6 kt METAR EHDL 270525Z AUTO 01006KT 7000 BR FEW006 02/01 Q1017 WHT
05:55
V
2 °C 8 km - 020° 020° 11 kt METAR EHDL 270455Z AUTO 02011KT 270V080 8000 BR NCD 02/01 Q1017 BLU
05:25
V
2 °C 8 km - 020° 020° 9 kt METAR EHDL 270425Z AUTO 02009KT 310V070 8000 BR NCD 02/01 Q1016 BLU
04:55
V
2 °C 8 km - 020° 020° 8 kt METAR EHDL 270355Z AUTO 02008KT 320V070 8000 BR FEW006 02/01 Q1016 BLU
04:25
V
2 °C 10 km+ 7.000 ft 010° 010° 8 kt METAR EHDL 270325Z AUTO 01008KT 330V050 9999 BKN070 02/01 Q1016 BLU
03:55
V
2 °C 10 km+ - 020° 020° 10 kt METAR EHDL 270255Z AUTO 02010KT 330V080 9999 NCD 02/01 Q1016 BLU
03:25
V
2 °C 10 km+ - 020° 020° 8 kt METAR EHDL 270225Z AUTO 02008KT 300V080 9999 SCT082 02/01 Q1016 BLU
02:55
V
3 °C 10 km+ 6.200 ft 020° 020° 10 kt METAR EHDL 270155Z AUTO 02010KT 320V060 9999 OVC062 03/01 Q1016 BLU
02:25
V
3 °C 10 km+ 6.300 ft 030° 030° 11 kt METAR EHDL 270125Z AUTO 03011KT 320V090 9999 OVC063 03/02 Q1015 BLU
01:55
V
3 °C 10 km+ 6.200 ft 030° 030° 11 kt METAR EHDL 270055Z AUTO 03011KT 310V090 9999 OVC062 03/02 Q1015 BLU
01:25
V
3 °C 10 km+ 6.300 ft 030° 030° 14 kt METAR EHDL 270025Z AUTO 03014KT 320V090 9999 BKN063 03/02 Q1015 BLU
00:55
V
3 °C 10 km+ 6.100 ft 030° 030° 15 kt METAR EHDL 262355Z AUTO 03015KT 320V070 9999 OVC061 03/02 Q1015 BLU
00:25
V
4 °C 10 km+ 6.100 ft 030° 030° 15 kt METAR EHDL 262325Z AUTO 03015KT 310V070 9999 OVC061 04/02 Q1015 BLU

26 lutego 2024

Czas Kod Pogoda Temp. Widoczność Sufit Wiatr METAR/SPECI
23:55
V
4 °C 10 km+ 5.800 ft 030° 030° 15 kt METAR EHDL 262255Z AUTO 03015KT 310V070 9999 BKN058 BKN066 OVC076 04/02 Q1014 BLU
23:25
V
4 °C 10 km+ 7.100 ft 030° 030° 15 kt METAR EHDL 262225Z AUTO 03015KT 310V090 9999 FEW054 SCT062 OVC071 04/02 Q1014 BLU
22:55
V
4 °C 10 km+ 5.800 ft 030° 030° 14 kt METAR EHDL 262155Z AUTO 03014KT 310V100 9999 BKN058 OVC063 04/02 Q1014 BLU
22:25
V
4 °C 10 km+ 5.600 ft 030° 030° 17 kt METAR EHDL 262125Z AUTO 03017KT 330V100 9999 OVC056 04/02 Q1013 BLU
21:55
V
4 °C 10 km+ 5.800 ft 020° 020° 17 kt METAR EHDL 262055Z AUTO 02017KT 310V080 9999 FEW029 SCT034 OVC058 04/02 Q1013 BLU
21:25
V
4 °C 10 km+ 6.500 ft 020° 020° 16 kt METAR EHDL 262025Z AUTO 02016KT 330V110 9999 FEW042 OVC065 04/02 Q1013 BLU
20:55
V
4 °C 10 km+ 7.300 ft 030° 030° 15 kt METAR EHDL 261955Z AUTO 03015KT 320V100 9999 FEW011 OVC073 04/02 Q1012 BLU
20:25
V
4 °C 10 km+ 7.000 ft 030° 030° 13 kt METAR EHDL 261925Z AUTO 03013KT 300V090 9999 SCT011 SCT061 BKN070 04/02 Q1012 GRN
19:55
V
4 °C 10 km+ 6.100 ft 020° 020° 14 kt METAR EHDL 261855Z AUTO 02014KT 280V080 9999 SCT011 BKN061 BKN076 04/02 Q1011 GRN
19:25
V
4 °C 10 km+ 7.000 ft 020° 020° 14 kt METAR EHDL 261825Z AUTO 02014KT 300V070 9999 BKN070 OVC076 04/03 Q1011 BLU
18:55
V
5 °C 10 km+ 10.000 ft 020° 020° 15 kt METAR EHDL 261755Z AUTO 02015KT 300V070 9999 FEW072 OVC100 05/03 Q1010 BLU
18:25
V
5 °C 10 km+ 5.000 ft 020° 020° 16 kt METAR EHDL 261725Z AUTO 02016KT 310V100 9999 FEW044 BKN050 OVC064 05/03 Q1009 BLU
17:55
V
5 °C 10 km+ 6.800 ft 020° 020° 14 kt METAR EHDL 261655Z AUTO 02014KT 320V070 9999 SCT062 OVC068 05/03 Q1009 BLU
17:25
V
5 °C 10 km+ 4.900 ft 020° 020° 13 kt METAR EHDL 261625Z AUTO 02013KT 330V070 9999 SCT037 BKN049 OVC055 05/04 Q1009 BLU
16:55
V
5 °C 10 km+ 5.200 ft 030° 030° 11 kt METAR EHDL 261555Z AUTO 03011KT 310V080 9999 FEW048 BKN052 OVC058 05/04 Q1008 REDZ BLU
16:25
V
6 °C 10 km+ 5.600 ft 030° 030° 12 kt METAR EHDL 261525Z AUTO 03012KT 320V100 9999 -DZRA FEW047 BKN056 OVC064 06/04 Q1008 BLU
15:55
M
6 °C 10 km+ 2.800 ft 020° 020° 14 kt METAR EHDL 261455Z AUTO 02014KT 320V070 9999 BKN028 OVC031 06/04 Q1007 BLU
15:25
V
6 °C 10 km+ 4.500 ft 020° 020° 13 kt METAR EHDL 261425Z AUTO 02013KT 320V080 9999 -DZ FEW026 SCT031 BKN045 06/05 Q1007 REDZ BLU
14:55
V
5 °C 10 km+ 4.500 ft 020° 020° 15 kt METAR EHDL 261355Z AUTO 02015KT 310V070 9999 -RADZ SCT040 BKN045 OVC050 05/04 Q1006 BLU
14:25
V
5 °C 10 km+ 4.600 ft 020° 020° 15 kt METAR EHDL 261325Z AUTO 02015KT 310V070 9999 -RA FEW042 OVC046 05/04 Q1006 BLU
13:55
V
5 °C 10 km+ 4.300 ft 030° 030° 14 kt METAR EHDL 261255Z AUTO 03014KT 320V090 9999 -RA BKN043 OVC048 05/04 Q1006 BLU
13:25
V
5 °C 10 km+ 4.300 ft 030° 030° 16 - 26 kt METAR EHDL 261225Z AUTO 03016G26KT 320V090 9999 -RA OVC043 05/04 Q1005 BLU
12:55
V
5 °C 10 km+ 3.600 ft 030° 030° 15 kt METAR EHDL 261155Z AUTO 03015KT 320V090 9999 -RA FEW015CB OVC036 05/04 Q1005 BLU
12:25
V
5 °C 10 km+ 3.600 ft 030° 030° 16 kt METAR EHDL 261125Z AUTO 03016KT 320V100 9999 -RA FEW010 SCT032 OVC036 05/04 Q1005 BLU
11:55
V
5 °C 10 km+ 4.200 ft 030° 030° 14 kt METAR EHDL 261055Z AUTO 03014KT 9999 -RA FEW031 SCT038 BKN042 05/04 Q1004 BLU
11:25
V
5 °C 9 km 4.100 ft 030° 030° 14 kt METAR EHDL 261025Z AUTO 03014KT 310V090 9000 -RA FEW008 OVC041 05/04 Q1004 BLU
10:55
V
5 °C 9 km 3.200 ft 030° 030° 15 kt METAR EHDL 260955Z AUTO 03015KT 320V110 9000 -RA BKN032 OVC039 05/04 Q1004 BLU
10:25
M
5 °C 7 km 3.800 ft 030° 030° 16 kt METAR EHDL 260925Z AUTO 03016KT 300V100 7000 -RA FEW029 BKN038 OVC044 05/04 Q1003 WHT
09:55
V
5 °C 9 km 3.300 ft 040° 040° 15 kt METAR EHDL 260855Z AUTO 04015KT 320V130 9000 -RA BKN033 OVC038 05/04 Q1003 RERA REDZ BLU
09:25
V
5 °C 10 km+ 4.200 ft 040° 040° 15 kt METAR EHDL 260825Z AUTO 04015KT 290V090 9999 -RA FEW037 BKN042 OVC050 05/03 Q1003 RERA REDZ BLU
08:55
V
5 °C 10 km+ 4.200 ft 040° 040° 16 kt METAR EHDL 260755Z AUTO 04016KT 9999 DZ FEW038 BKN042 BKN046 05/03 Q1002 BLU
08:25
V
4 °C 10 km+ 4.500 ft 030° 030° 14 kt METAR EHDL 260725Z AUTO 03014KT 300V090 9999 DZ FEW034 BKN045 OVC049 04/03 Q1002 BLU
07:55
V
4 °C 10 km+ 4.600 ft 030° 030° 13 kt METAR EHDL 260655Z AUTO 03013KT 290V080 9999 -RA FEW039 BKN046 OVC051 04/03 Q1002 RERA REDZ BLU
07:25
V
4 °C 10 km+ 5.600 ft 040° 040° 14 kt METAR EHDL 260625Z AUTO 04014KT 330V100 9999 -DZ BKN056 OVC061 04/03 Q1001 BLU
06:55
V
4 °C 10 km+ 5.000 ft 040° 040° 12 kt METAR EHDL 260555Z AUTO 04012KT 320V100 9999 -RA FEW045 BKN050 OVC055 04/03 Q1001 RERA REDZ BLU